Stanley, ND

4:55 PM CST on February 27, 2017 (GMT -0600)
Stanley

Weather History for K08D - December, 2011

Change the Weather History Date:

Saturday, December 3, 2011

  Actual Average (KMIB) Record (KMIB)
Temperature  
Mean Temperature 19 °F -  
Max Temperature 24 °F 27 °F 50 °F (2015)
Min Temperature 14 °F 11 °F -18 °F (2006)
Degree Days  
Heating Degree Days 46    
Moisture  
Dew Point 14 °F    
Average Humidity 78    
Maximum Humidity 93    
Minimum Humidity 54    
Precipitation  
Precipitation 0.09 in - - ()
Sea Level Pressure  
Sea Level Pressure 30.02 in    
Wind  
Wind Speed 15 mph (WNW)    
Max Wind Speed 25 mph    
Max Gust Speed 32 mph    
Visibility 10 miles    
Events Snow    
Averages and records for this station are not official NWS values.
T = Trace of Precipitation, MM = Missing Value Source: NWS Daily Summary

Daily Weather History Graph

Daily Weather History Graph

Search for Another Location

Airport or City:

Trip Planner

Search our weather history database for the weather conditions in past years. The results will help you decide how hot, cold, wet, or windy it might be!

Date:

Astronomy

Dec. 03, 2011 Rise Set
Actual Time 8:21 AM CST 4:56 PM CST
Civil Twilight 7:45 AM CST 5:32 PM CST
Nautical Twilight 7:06 AM CST 6:12 PM CST
Astronomical Twilight 6:28 AM CST 6:49 PM CST
Moon 1:26 PM CST (12/3) 1:25 AM CST (12/3)
Length of Visible Light 9h 46m
Length of Day
8h 35m
Waxing Gibbous, 63% of the Moon is Illuminated
Dec 3
Waxing Gibbous
Dec 10
Full
Dec 17
Last Quarter
Dec 24
New
Jan 1
First Quarter

Hourly Weather History & Observations

Time (CST) Temp. Windchill Dew Point Humidity Pressure Visibility Wind Dir Wind Speed Gust Speed Precip Events Conditions
12:15 AM 24.8 °F 13.4 °F 19.4 °F 80% 29.89 in 10.0 mi WNW 12.7 mph 18.4 mph N/A   Partly Cloudy
12:35 AM 24.8 °F 11.5 °F 19.4 °F 80% 29.90 in 10.0 mi WNW 17.3 mph 29.9 mph N/A   Mostly Cloudy
12:55 AM 24.8 °F 11.9 °F 19.4 °F 80% 29.91 in 10.0 mi WNW 16.1 mph 26.5 mph N/A   Overcast
1:15 AM 23.0 °F 8.0 °F 17.6 °F 80% 29.91 in 10.0 mi WNW 20.7 mph 27.6 mph N/A   Overcast
1:35 AM 23.0 °F 9.6 °F 17.6 °F 80% 29.92 in 10.0 mi WNW 16.1 mph 27.6 mph N/A Snow Light Snow
1:55 AM 23.0 °F 8.3 °F 19.4 °F 86% 29.92 in 10.0 mi WNW 19.6 mph 24.2 mph N/A Snow Light Snow
2:15 AM 23.0 °F 6.6 °F 19.4 °F 86% 29.92 in 10.0 mi WNW 25.3 mph 29.9 mph N/A Snow Light Snow
2:35 AM 23.0 °F 7.2 °F 17.6 °F 80% 29.94 in 10.0 mi WNW 23.0 mph 32.2 mph N/A   Overcast
2:55 AM 23.0 °F 8.3 °F 17.6 °F 80% 29.95 in 10.0 mi NW 19.6 mph 32.2 mph 0.01 in Snow Light Snow
3:15 AM 23.0 °F 9.2 °F 17.6 °F 80% 29.95 in 10.0 mi NW 17.3 mph 31.1 mph N/A Snow Light Snow
3:35 AM 23.0 °F 9.6 °F 17.6 °F 80% 29.96 in 10.0 mi NW 16.1 mph 28.8 mph 0.01 in Snow Light Snow
3:55 AM 23.0 °F 10.1 °F 15.8 °F 74% 29.97 in 10.0 mi NW 15.0 mph 27.6 mph 0.01 in Snow Light Snow
4:15 AM 21.2 °F 5.6 °F 14.0 °F 74% 29.98 in 10.0 mi NW 20.7 mph 32.2 mph N/A   Overcast
4:35 AM 19.4 °F 5.5 °F 14.0 °F 80% 29.99 in 10.0 mi NW 15.0 mph 26.5 mph N/A   Overcast
4:55 AM 19.4 °F 2.8 °F 14.0 °F 80% 30.00 in 10.0 mi NW 21.9 mph 29.9 mph N/A   Overcast
5:15 AM 19.4 °F 5.0 °F 14.0 °F 80% 30.01 in 10.0 mi NW 16.1 mph 21.9 mph N/A Snow Light Snow
5:35 AM 19.4 °F 4.5 °F 14.0 °F 80% 30.02 in 10.0 mi NW 17.3 mph 23.0 mph 0.01 in Snow Light Snow
5:55 AM 19.4 °F 3.6 °F 14.0 °F 80% 30.02 in 10.0 mi NW 19.6 mph 28.8 mph 0.02 in Snow Light Snow
6:15 AM 17.6 °F 2.2 °F 12.2 °F 79% 30.03 in 10.0 mi NW 17.3 mph 27.6 mph N/A Snow Light Snow
6:35 AM 17.6 °F 0.5 °F 12.2 °F 79% 30.02 in 10.0 mi NW 21.9 mph 32.2 mph N/A Snow Light Snow
6:55 AM 17.6 °F 0.1 °F 12.2 °F 79% 30.02 in 10.0 mi NW 23.0 mph 29.9 mph N/A Snow Light Snow
7:15 AM 17.6 °F 2.7 °F 14.0 °F 86% 30.03 in 10.0 mi NW 16.1 mph 28.8 mph N/A   Overcast
7:35 AM 17.6 °F 0.1 °F 14.0 °F 86% 30.03 in 10.0 mi NW 23.0 mph 29.9 mph N/A Snow Light Snow
7:55 AM 19.4 °F 2.8 °F 14.0 °F 80% 30.04 in 10.0 mi NW 21.9 mph 32.2 mph 0.01 in Snow Light Snow
8:15 AM 19.4 °F 5.5 °F 14.0 °F 80% 30.05 in 10.0 mi NW 15.0 mph 23.0 mph N/A Snow Light Snow
8:35 AM 19.4 °F 5.5 °F 14.0 °F 80% 30.06 in 10.0 mi NW 15.0 mph 21.9 mph N/A Snow Light Snow
9:15 AM 19.4 °F 5.0 °F 14.0 °F 80% 30.07 in 10.0 mi NW 16.1 mph 24.2 mph N/A Snow Light Snow
9:35 AM 19.4 °F 6.0 °F 15.8 °F 86% 30.08 in 10.0 mi NW 13.8 mph 21.9 mph 0.02 in Snow Light Snow
9:55 AM 19.4 °F 6.6 °F 15.8 °F 86% 30.08 in 10.0 mi WNW 12.7 mph 20.7 mph 0.03 in Snow Light Snow
10:15 AM 19.4 °F 5.5 °F 15.8 °F 86% 30.08 in 10.0 mi WNW 15.0 mph 19.6 mph N/A Snow Light Snow
10:35 AM 21.2 °F 8.3 °F 15.8 °F 80% 30.09 in 10.0 mi WNW 13.8 mph 19.6 mph N/A Snow Light Snow
10:55 AM 21.2 °F 7.3 °F 15.8 °F 80% 30.09 in 10.0 mi WNW 16.1 mph 23.0 mph 0.01 in Snow Light Snow
11:15 AM 19.4 °F 5.0 °F 14.0 °F 80% 30.09 in 10.0 mi NW 16.1 mph 25.3 mph N/A Snow Light Snow
11:35 AM 21.2 °F 7.8 °F 15.8 °F 80% 30.09 in 10.0 mi NW 15.0 mph 23.0 mph N/A Snow Light Snow
11:55 AM 21.2 °F 7.8 °F 15.8 °F 80% 30.08 in 10.0 mi NW 15.0 mph 21.9 mph N/A Snow Light Snow
12:15 PM 21.2 °F 6.8 °F 14.0 °F 74% 30.07 in 10.0 mi NW 17.3 mph 25.3 mph N/A   Scattered Clouds
12:35 PM 21.2 °F 7.3 °F 14.0 °F 74% 30.06 in 10.0 mi WNW 16.1 mph 20.7 mph N/A   Partly Cloudy
12:55 PM 21.2 °F 6.8 °F 14.0 °F 74% 30.06 in 10.0 mi WNW 17.3 mph 21.9 mph N/A   Clear
1:15 PM 23.0 °F 12.4 °F 12.2 °F 63% 30.05 in 10.0 mi NW 10.4 mph - N/A   Clear
1:55 PM 23.0 °F 12.4 °F 12.2 °F 63% 30.04 in 10.0 mi West 10.4 mph 18.4 mph N/A   Clear
2:15 PM 23.0 °F 11.1 °F 12.2 °F 63% 30.04 in 10.0 mi West 12.7 mph - N/A   Clear
2:35 PM 23.0 °F 12.4 °F 12.2 °F 63% 30.03 in 10.0 mi WNW 10.4 mph - N/A   Clear
2:55 PM 24.8 °F 16.1 °F 12.2 °F 59% 30.04 in 10.0 mi West 8.1 mph 16.1 mph N/A   Clear
3:15 PM 24.8 °F 14.0 °F 12.2 °F 59% 30.03 in 10.0 mi WNW 11.5 mph - N/A   Clear
3:35 PM 24.8 °F 14.6 °F 10.4 °F 54% 30.04 in 10.0 mi WNW 10.4 mph - N/A   Clear
3:55 PM 23.0 °F 13.1 °F 10.4 °F 59% 30.04 in 10.0 mi West 9.2 mph - N/A   Clear
4:15 PM 23.0 °F 13.1 °F 10.4 °F 59% 30.04 in 10.0 mi West 9.2 mph - N/A   Clear
4:35 PM 21.2 °F 10.9 °F 10.4 °F 63% 30.03 in 10.0 mi West 9.2 mph - N/A   Clear
4:55 PM 17.6 °F 8.2 °F 10.4 °F 73% 30.03 in 10.0 mi WSW 6.9 mph - N/A   Clear
5:15 PM 15.8 °F 7.2 °F 10.4 °F 79% 30.04 in 10.0 mi WSW 5.8 mph - N/A   Clear
5:35 PM 17.6 °F 9.3 °F 10.4 °F 73% 30.04 in 10.0 mi SW 5.8 mph - N/A   Clear
5:55 PM 15.8 °F 8.6 °F 10.4 °F 79% 30.04 in 10.0 mi SSW 4.6 mph - N/A   Partly Cloudy
6:15 PM 15.8 °F 7.2 °F 10.4 °F 79% 30.04 in 10.0 mi SW 5.8 mph - N/A   Mostly Cloudy
6:35 PM 15.8 °F 7.2 °F 10.4 °F 79% 30.03 in 10.0 mi SW 5.8 mph - N/A   Mostly Cloudy
6:55 PM 15.8 °F 7.2 °F 10.4 °F 79% 30.02 in 10.0 mi WSW 5.8 mph - N/A   Scattered Clouds
7:15 PM 14.0 °F - 10.4 °F 86% 30.02 in 10.0 mi Calm Calm - N/A   Mostly Cloudy
7:35 PM 15.8 °F 6.1 °F 14.0 °F 93% 30.01 in 10.0 mi SW 6.9 mph - N/A   Overcast
7:55 PM 15.8 °F 6.1 °F 14.0 °F 93% 29.99 in 10.0 mi SW 6.9 mph - N/A   Mostly Cloudy
8:15 PM 15.8 °F 8.6 °F 14.0 °F 93% 29.98 in 10.0 mi WSW 4.6 mph - N/A   Scattered Clouds
8:35 PM 15.8 °F 7.2 °F 14.0 °F 93% 29.97 in 10.0 mi WSW 5.8 mph - N/A   Mostly Cloudy
8:55 PM 17.6 °F 8.2 °F 14.0 °F 86% 29.97 in 10.0 mi SSW 6.9 mph - N/A   Mostly Cloudy
9:15 PM 17.6 °F 9.3 °F 14.0 °F 86% 29.97 in 10.0 mi SW 5.8 mph - N/A   Overcast
9:35 PM 17.6 °F 12.3 °F 14.0 °F 86% 29.96 in 10.0 mi WSW 3.5 mph - N/A   Overcast
9:55 PM 17.6 °F 12.3 °F 15.8 °F 93% 29.96 in 10.0 mi SSW 3.5 mph - N/A   Overcast
10:15 PM 17.6 °F 10.7 °F 15.8 °F 93% 29.96 in 10.0 mi SW 4.6 mph - N/A   Overcast
10:35 PM 19.4 °F 12.8 °F 15.8 °F 86% 29.95 in 10.0 mi SSW 4.6 mph - N/A   Overcast
10:55 PM 19.4 °F - 15.8 °F 86% 29.96 in 10.0 mi Calm Calm - N/A   Overcast
11:15 PM 19.4 °F 14.3 °F 15.8 °F 86% 29.95 in 10.0 mi South 3.5 mph - N/A   Overcast
11:35 PM 21.2 °F 16.4 °F 17.6 °F 86% 29.95 in 10.0 mi SSE 3.5 mph - N/A   Overcast
11:55 PM 21.2 °F - 17.6 °F 86% 29.95 in 10.0 mi Calm Calm - N/A   Overcast